createdAt,value
2018-03-24T00:00:53.450Z,23.49
2018-03-24T00:01:53.451Z,23.52
2018-03-24T00:02:53.431Z,23.49
2018-03-24T00:03:53.415Z,23.50
2018-03-24T00:04:53.427Z,23.49
2018-03-24T00:05:53.413Z,23.44
2018-03-24T00:06:53.417Z,23.49
2018-03-24T00:07:53.401Z,23.45
2018-03-24T00:08:53.396Z,23.39
2018-03-24T00:09:53.394Z,23.47
2018-03-24T00:10:53.403Z,23.49
2018-03-24T00:11:53.383Z,23.47
2018-03-24T00:12:53.393Z,23.52
2018-03-24T00:13:53.420Z,23.45
2018-03-24T00:14:53.375Z,23.47
2018-03-24T00:15:53.363Z,23.49
2018-03-24T00:16:53.375Z,23.44
2018-03-24T00:17:53.369Z,23.52
2018-03-24T00:18:53.350Z,23.39
2018-03-24T00:19:53.355Z,23.39
2018-03-24T00:20:53.350Z,23.41
2018-03-24T00:21:53.345Z,23.41
2018-03-24T00:22:53.341Z,23.47
2018-03-24T00:23:53.324Z,23.44
2018-03-24T00:24:53.330Z,23.42
2018-03-24T00:25:53.313Z,23.42
2018-03-24T00:26:53.315Z,23.34
2018-03-24T00:27:53.295Z,23.32
2018-03-24T00:28:53.310Z,23.35
2018-03-24T00:29:53.294Z,23.21
2018-03-24T00:30:53.295Z,23.21
2018-03-24T00:31:53.295Z,23.23
2018-03-24T00:32:53.269Z,23.23
2018-03-24T00:33:53.284Z,23.29
2018-03-24T00:34:53.283Z,23.31
2018-03-24T00:35:53.254Z,23.23
2018-03-24T00:36:53.249Z,23.32
2018-03-24T00:37:53.244Z,23.22
2018-03-24T00:38:53.244Z,23.23
2018-03-24T00:39:53.242Z,23.23
2018-03-24T00:40:53.249Z,23.18
2018-03-24T00:41:53.223Z,23.15
2018-03-24T00:42:53.238Z,23.03
2018-03-24T00:43:53.233Z,23.07
2018-03-24T00:44:53.213Z,23.09
2018-03-24T00:45:53.212Z,23.12
2018-03-24T00:46:53.217Z,23.12
2018-03-24T00:47:53.197Z,23.09
2018-03-24T00:48:53.192Z,23.06
2018-03-24T00:49:53.205Z,23.18
2018-03-24T00:50:53.235Z,23.15
2018-03-24T00:51:53.176Z,23.23
2018-03-24T00:52:53.171Z,23.19
2018-03-24T00:53:53.180Z,23.18
2018-03-24T00:54:53.175Z,23.11
2018-03-24T00:55:53.170Z,23.09
2018-03-24T00:56:53.143Z,23.19
2018-03-24T00:57:53.148Z,23.11
2018-03-24T00:58:53.134Z,23.12
2018-03-24T00:59:53.137Z,23.07
2018-03-24T01:00:53.128Z,23.09
2018-03-24T01:01:53.133Z,23.18
2018-03-24T01:02:53.136Z,23.18
2018-03-24T01:03:53.118Z,23.15
2018-03-24T01:04:53.129Z,23.09
2018-03-24T01:05:53.102Z,23.14
2018-03-24T01:06:53.093Z,23.11
2018-03-24T01:07:53.112Z,23.07
2018-03-24T01:08:53.080Z,23.06
2018-03-24T01:09:53.096Z,23.07
2018-03-24T01:10:53.092Z,23.07
2018-03-24T01:11:53.066Z,23.06
2018-03-24T01:12:53.083Z,23.12
2018-03-24T01:13:53.060Z,23.14
2018-03-24T01:14:53.049Z,23.07
2018-03-24T01:15:53.050Z,23.06
2018-03-24T01:16:53.049Z,23.04
2018-03-24T01:17:53.055Z,23.00
2018-03-24T01:18:53.054Z,22.99
2018-03-24T01:19:53.032Z,22.97
2018-03-24T01:20:53.019Z,22.91
2018-03-24T01:21:53.021Z,22.88
2018-03-24T01:22:53.023Z,22.94
2018-03-24T01:23:53.018Z,22.96
2018-03-24T01:24:53.018Z,22.97
2018-03-24T01:25:53.016Z,23.04
2018-03-24T01:26:53.007Z,23.03
2018-03-24T01:27:53.035Z,22.99
2018-03-24T01:28:52.984Z,22.94
2018-03-24T01:29:52.992Z,22.99
2018-03-24T01:30:52.985Z,23.07
2018-03-24T01:31:52.964Z,22.97
2018-03-24T01:32:52.960Z,22.99
2018-03-24T01:33:52.957Z,22.99
2018-03-24T01:34:52.955Z,22.96
2018-03-24T01:35:52.939Z,22.93
2018-03-24T01:36:52.958Z,22.89
2018-03-24T01:37:52.948Z,22.88
2018-03-24T01:38:52.927Z,22.89
2018-03-24T01:39:52.938Z,22.88
2018-03-24T01:40:52.911Z,22.88
2018-03-24T01:41:52.930Z,22.85
2018-03-24T01:42:52.922Z,22.88
2018-03-24T01:43:52.916Z,22.89
2018-03-24T01:44:52.894Z,22.89
2018-03-24T01:45:52.889Z,22.86
2018-03-24T01:46:52.891Z,22.96
2018-03-24T01:47:52.886Z,22.84
2018-03-24T01:48:52.878Z,22.86
2018-03-24T01:49:52.878Z,22.91
2018-03-24T01:50:52.878Z,22.91
2018-03-24T01:51:52.868Z,22.86
2018-03-24T01:52:52.862Z,22.79
2018-03-24T01:53:52.846Z,22.81
2018-03-24T01:54:52.836Z,22.84
2018-03-24T01:55:52.839Z,22.88
2018-03-24T01:56:52.851Z,22.86
2018-03-24T01:57:52.844Z,22.91
2018-03-24T01:58:52.826Z,22.82
2018-03-24T01:59:52.830Z,22.82
2018-03-24T02:00:52.814Z,22.85
2018-03-24T02:01:52.804Z,22.89
2018-03-24T02:02:52.818Z,22.96
2018-03-24T02:03:52.794Z,22.96
2018-03-24T02:04:52.803Z,22.85
2018-03-24T02:05:52.797Z,22.93
2018-03-24T02:06:52.796Z,22.91
2018-03-24T02:07:52.791Z,22.97
2018-03-24T02:08:52.782Z,22.97
2018-03-24T02:09:52.760Z,22.93
2018-03-24T02:10:52.756Z,23.01
2018-03-24T02:11:52.767Z,22.97
2018-03-24T02:12:52.745Z,23.00
2018-03-24T02:13:52.741Z,23.03
2018-03-24T02:14:52.734Z,22.96
2018-03-24T02:15:52.729Z,22.99
2018-03-24T02:16:52.724Z,23.00
2018-03-24T02:17:52.721Z,22.97
2018-03-24T02:18:52.712Z,23.03
2018-03-24T02:19:52.708Z,22.99
2018-03-24T02:20:52.703Z,23.01
2018-03-24T02:21:52.690Z,22.85
2018-03-24T02:22:52.692Z,22.94
2018-03-24T02:23:52.686Z,22.97
2018-03-24T02:24:52.676Z,22.86
2018-03-24T02:25:52.676Z,22.89
2018-03-24T02:26:52.666Z,22.93
2018-03-24T02:27:52.668Z,22.89
2018-03-24T02:28:52.661Z,22.99
2018-03-24T02:29:52.648Z,22.97
2018-03-24T02:30:52.665Z,23.00
2018-03-24T02:31:52.664Z,23.04
2018-03-24T02:32:52.642Z,23.00
2018-03-24T02:33:52.633Z,22.91
2018-03-24T02:34:52.629Z,23.00
2018-03-24T02:35:52.623Z,22.99
2018-03-24T02:36:52.618Z,22.99
2018-03-24T02:37:52.628Z,22.91
2018-03-24T02:38:52.627Z,23.03
2018-03-24T02:39:52.602Z,22.97
2018-03-24T02:40:52.597Z,22.88
2018-03-24T02:41:52.592Z,22.97
2018-03-24T02:42:52.580Z,22.94
2018-03-24T02:43:52.574Z,22.94
2018-03-24T02:44:52.571Z,22.99
2018-03-24T02:45:52.570Z,22.97
2018-03-24T02:46:52.564Z,23.04
2018-03-24T02:47:52.577Z,23.00
2018-03-24T02:48:52.572Z,23.00
2018-03-24T02:49:52.549Z,23.03
2018-03-24T02:50:52.548Z,22.99
2018-03-24T02:51:52.554Z,22.99
2018-03-24T02:52:52.550Z,22.97
2018-03-24T02:53:52.543Z,22.96
2018-03-24T02:54:52.517Z,22.89
2018-03-24T02:55:52.522Z,22.86
2018-03-24T02:56:52.517Z,22.93
2018-03-24T02:57:52.500Z,22.97
2018-03-24T02:58:52.501Z,22.84
2018-03-24T02:59:52.513Z,22.94
2018-03-24T03:00:52.511Z,22.84
2018-03-24T03:01:52.506Z,22.91
2018-03-24T03:02:52.499Z,22.85
2018-03-24T03:03:52.476Z,22.85
2018-03-24T03:04:52.486Z,22.89
2018-03-24T03:05:52.483Z,22.78
2018-03-24T03:06:52.479Z,22.85
2018-03-24T03:07:52.476Z,22.81
2018-03-24T03:08:52.467Z,22.81
2018-03-24T03:09:52.455Z,22.84
2018-03-24T03:10:52.438Z,22.82
2018-03-24T03:11:52.434Z,22.84
2018-03-24T03:12:52.428Z,22.88
2018-03-24T03:13:52.422Z,22.82
2018-03-24T03:14:52.442Z,22.84
2018-03-24T03:15:52.429Z,22.85
2018-03-24T03:16:52.429Z,22.82
2018-03-24T03:17:52.418Z,22.78
2018-03-24T03:18:52.396Z,22.84
2018-03-24T03:19:52.393Z,22.70
2018-03-24T03:20:52.395Z,22.70
2018-03-24T03:21:52.396Z,22.69
2018-03-24T03:22:52.389Z,22.69
2018-03-24T03:23:52.383Z,22.74
2018-03-24T03:24:52.363Z,22.66
2018-03-24T03:25:52.357Z,22.63
2018-03-24T03:26:52.352Z,22.70
2018-03-24T03:27:52.387Z,22.74
2018-03-24T03:28:52.351Z,22.72
2018-03-24T03:29:52.339Z,22.74
2018-03-24T03:30:52.347Z,22.66
2018-03-24T03:31:52.324Z,22.64
2018-03-24T03:32:52.337Z,22.76
2018-03-24T03:33:52.327Z,22.78
2018-03-24T03:34:52.302Z,22.72
2018-03-24T03:35:52.303Z,22.76
2018-03-24T03:36:52.316Z,22.72
2018-03-24T03:37:52.311Z,22.67
2018-03-24T03:38:52.287Z,22.67
2018-03-24T03:39:52.281Z,22.74
2018-03-24T03:40:52.277Z,22.75
2018-03-24T03:41:52.273Z,22.69
2018-03-24T03:42:52.265Z,22.70
2018-03-24T03:43:52.259Z,22.67
2018-03-24T03:44:52.274Z,22.79
2018-03-24T03:45:52.265Z,22.67
2018-03-24T03:46:52.260Z,22.78
2018-03-24T03:47:52.256Z,22.69
2018-03-24T03:48:52.233Z,22.64
2018-03-24T03:49:52.249Z,22.72
2018-03-24T03:50:52.221Z,22.70
2018-03-24T03:51:52.216Z,22.67
2018-03-24T03:52:52.226Z,22.64
2018-03-24T03:53:52.222Z,22.70
2018-03-24T03:54:52.219Z,22.69
2018-03-24T03:55:52.212Z,22.66
2018-03-24T03:56:52.202Z,22.70
2018-03-24T03:57:52.204Z,22.75
2018-03-24T03:58:52.178Z,22.67
2018-03-24T03:59:52.186Z,22.66
2018-03-24T04:00:52.171Z,22.74
2018-03-24T04:01:52.179Z,22.69
2018-03-24T04:02:52.169Z,22.63
2018-03-24T04:03:52.151Z,22.63
2018-03-24T04:04:52.168Z,22.67
2018-03-24T04:05:52.135Z,22.70
2018-03-24T04:06:52.156Z,22.66
2018-03-24T04:07:52.130Z,22.66
2018-03-24T04:08:52.118Z,22.66
2018-03-24T04:09:52.142Z,22.70
2018-03-24T04:10:52.115Z,22.66
2018-03-24T04:11:52.111Z,22.70
2018-03-24T04:12:52.119Z,22.74
2018-03-24T04:13:52.098Z,22.72
2018-03-24T04:14:52.091Z,22.67
2018-03-24T04:15:52.090Z,22.67
2018-03-24T04:16:52.085Z,22.70
2018-03-24T04:17:52.073Z,22.82
2018-03-24T04:18:52.071Z,22.72
2018-03-24T04:19:52.067Z,22.67
2018-03-24T04:20:52.058Z,22.67
2018-03-24T04:21:52.074Z,22.67
2018-03-24T04:22:52.051Z,22.66
2018-03-24T04:23:52.060Z,22.60
2018-03-24T04:24:52.033Z,22.57
2018-03-24T04:25:52.024Z,22.56
2018-03-24T04:26:52.047Z,22.56
2018-03-24T04:27:52.024Z,22.64
2018-03-24T04:28:52.015Z,22.72
2018-03-24T04:29:52.004Z,22.66
2018-03-24T04:30:52.003Z,22.59
2018-03-24T04:31:52.003Z,22.52
2018-03-24T04:32:52.012Z,22.46
2018-03-24T04:33:51.988Z,22.54
2018-03-24T04:34:51.986Z,22.51
2018-03-24T04:35:51.979Z,22.63
2018-03-24T04:36:51.986Z,22.56
2018-03-24T04:37:51.967Z,22.52
2018-03-24T04:38:51.975Z,22.60
2018-03-24T04:39:51.963Z,22.57
2018-03-24T04:40:51.953Z,22.57
2018-03-24T04:41:51.943Z,22.51
2018-03-24T04:42:51.953Z,22.59
2018-03-24T04:43:51.949Z,22.56
2018-03-24T04:44:51.927Z,22.59
2018-03-24T04:45:51.931Z,22.46
2018-03-24T04:46:51.919Z,22.52
2018-03-24T04:47:51.914Z,22.49
2018-03-24T04:48:51.917Z,22.60
2018-03-24T04:49:51.914Z,22.57
2018-03-24T04:50:51.888Z,22.52
2018-03-24T04:51:51.883Z,22.51
2018-03-24T04:52:51.886Z,22.45
2018-03-24T04:53:51.899Z,22.44
2018-03-24T04:54:51.891Z,22.42
2018-03-24T04:55:51.869Z,22.44
2018-03-24T04:56:51.871Z,22.44
2018-03-24T04:57:51.974Z,22.42
2018-03-24T04:58:51.859Z,22.42
2018-03-24T04:59:51.860Z,22.35
2018-03-24T05:00:51.838Z,22.31
2018-03-24T05:01:51.826Z,22.45
2018-03-24T05:02:51.846Z,22.41
2018-03-24T05:03:51.837Z,22.52
2018-03-24T05:04:51.816Z,22.42
2018-03-24T05:05:51.829Z,22.41
2018-03-24T05:06:51.815Z,22.42
2018-03-24T05:07:51.809Z,22.45
2018-03-24T05:08:51.794Z,22.44
2018-03-24T05:09:51.788Z,22.48
2018-03-24T05:10:51.783Z,22.48
2018-03-24T05:11:51.777Z,22.44
2018-03-24T05:12:51.765Z,22.44
2018-03-24T05:13:51.766Z,22.46
2018-03-24T05:14:51.764Z,22.48
2018-03-24T05:15:51.759Z,22.46
2018-03-24T05:16:51.743Z,22.49
2018-03-24T05:17:51.758Z,22.46
2018-03-24T05:18:51.731Z,22.49
2018-03-24T05:19:51.753Z,22.46
2018-03-24T05:20:51.747Z,22.41
2018-03-24T05:21:51.724Z,22.48
2018-03-24T05:22:51.728Z,22.45
2018-03-24T05:23:51.713Z,22.57
2018-03-24T05:24:51.700Z,22.48
2018-03-24T05:25:51.701Z,22.52
2018-03-24T05:26:51.698Z,22.49
2018-03-24T05:27:51.682Z,22.57
2018-03-24T05:28:51.689Z,22.52
2018-03-24T05:29:51.676Z,22.51
2018-03-24T05:30:51.686Z,22.45
2018-03-24T05:31:51.676Z,22.46
2018-03-24T05:32:51.654Z,22.41
2018-03-24T05:33:51.659Z,22.42
2018-03-24T05:34:51.647Z,22.38
2018-03-24T05:35:51.644Z,22.41
2018-03-24T05:36:51.643Z,22.42
2018-03-24T05:37:51.627Z,22.33
2018-03-24T05:38:51.622Z,22.44
2018-03-24T05:39:51.621Z,22.39
2018-03-24T05:40:51.611Z,22.44
2018-03-24T05:41:51.610Z,22.38
2018-03-24T05:42:51.600Z,22.42
2018-03-24T05:43:51.594Z,22.42
2018-03-24T05:44:51.599Z,22.41
2018-03-24T05:45:51.582Z,22.41
2018-03-24T05:46:51.578Z,22.41
2018-03-24T05:47:51.587Z,22.45
2018-03-24T05:48:51.565Z,22.42
2018-03-24T05:49:51.575Z,22.39
2018-03-24T05:50:51.564Z,22.36
2018-03-24T05:51:51.558Z,22.31
2018-03-24T05:52:51.559Z,22.30
2018-03-24T05:53:51.558Z,22.42
2018-03-24T05:54:51.537Z,22.44
2018-03-24T05:55:51.526Z,22.41
2018-03-24T05:56:51.530Z,22.31
2018-03-24T05:57:51.665Z,22.27
2018-03-24T05:58:51.515Z,22.31
2018-03-24T05:59:51.510Z,22.35
2018-03-24T06:00:51.509Z,22.15
2018-03-24T06:01:51.500Z,22.17
2018-03-24T06:02:51.502Z,22.17
2018-03-24T06:03:51.652Z,22.19
2018-03-24T06:04:51.486Z,22.15
2018-03-24T06:05:51.475Z,22.23
2018-03-24T06:06:51.487Z,22.19
2018-03-24T06:07:51.479Z,22.19
2018-03-24T06:08:51.452Z,22.14
2018-03-24T06:09:51.613Z,22.33
2018-03-24T06:10:51.446Z,22.29
2018-03-24T06:11:51.441Z,22.24
2018-03-24T06:12:51.435Z,22.30
2018-03-24T06:13:51.423Z,22.19
2018-03-24T06:14:51.423Z,22.15
2018-03-24T06:15:51.418Z,22.21
2018-03-24T06:16:51.430Z,22.26
2018-03-24T06:17:51.424Z,22.21
2018-03-24T06:18:51.419Z,22.14
2018-03-24T06:19:51.395Z,22.14
2018-03-24T06:20:51.411Z,22.20
2018-03-24T06:21:51.387Z,22.21
2018-03-24T06:22:51.371Z,22.19
2018-03-24T06:23:51.372Z,22.17
2018-03-24T06:24:51.386Z,22.20
2018-03-24T06:25:51.367Z,22.04
2018-03-24T06:26:51.370Z,22.11
2018-03-24T06:27:51.450Z,22.01
2018-03-24T06:28:51.359Z,22.02
2018-03-24T06:29:51.353Z,22.05
2018-03-24T06:30:51.353Z,22.01
2018-03-24T06:31:51.330Z,22.15
2018-03-24T06:32:51.316Z,22.02
2018-03-24T06:33:51.346Z,22.12
2018-03-24T06:34:51.326Z,22.12
2018-03-24T06:35:51.320Z,22.09
2018-03-24T06:36:51.313Z,22.05
2018-03-24T06:37:51.307Z,22.02
2018-03-24T06:38:51.305Z,22.09
2018-03-24T06:39:51.396Z,22.02
2018-03-24T06:40:51.269Z,22.09
2018-03-24T06:41:51.287Z,22.02
2018-03-24T06:42:51.264Z,22.02
2018-03-24T06:43:51.278Z,22.11
2018-03-24T06:44:51.292Z,22.11
2018-03-24T06:45:51.251Z,22.09
2018-03-24T06:46:51.239Z,21.96
2018-03-24T06:47:51.228Z,22.01
2018-03-24T06:48:51.223Z,22.02
2018-03-24T06:49:51.243Z,22.01
2018-03-24T06:50:51.219Z,22.02
2018-03-24T06:51:51.213Z,21.99
2018-03-24T06:52:51.214Z,21.94
2018-03-24T06:53:51.201Z,21.96
2018-03-24T06:54:51.213Z,21.90
2018-03-24T06:55:51.208Z,21.96
2018-03-24T06:56:51.185Z,22.01
2018-03-24T06:57:51.198Z,22.08
2018-03-24T06:58:51.173Z,21.99
2018-03-24T06:59:51.158Z,21.93
2018-03-24T07:00:51.186Z,21.90
2018-03-24T07:01:51.155Z,21.79
2018-03-24T07:02:51.144Z,21.74
2018-03-24T07:03:51.161Z,21.85
2018-03-24T07:04:51.137Z,21.90
2018-03-24T07:05:51.146Z,21.81
2018-03-24T07:06:51.116Z,21.83
2018-03-24T07:07:51.116Z,21.83
2018-03-24T07:08:51.125Z,21.85
2018-03-24T07:09:51.106Z,21.79
2018-03-24T07:10:51.119Z,21.86
2018-03-24T07:11:51.096Z,21.70
2018-03-24T07:12:51.098Z,21.83
2018-03-24T07:13:51.084Z,21.81
2018-03-24T07:14:51.091Z,21.73
2018-03-24T07:15:51.084Z,21.85
2018-03-24T07:16:51.074Z,21.77
2018-03-24T07:17:51.054Z,21.85
2018-03-24T07:18:51.062Z,21.83
2018-03-24T07:19:51.047Z,21.91
2018-03-24T07:20:51.038Z,21.89
2018-03-24T07:21:51.032Z,21.94
2018-03-24T07:22:51.045Z,21.91
2018-03-24T07:23:51.024Z,21.89
2018-03-24T07:24:51.019Z,21.89
2018-03-24T07:25:51.012Z,21.89
2018-03-24T07:26:51.002Z,21.86
2018-03-24T07:27:51.112Z,21.90
2018-03-24T07:28:50.995Z,21.85
2018-03-24T07:29:50.998Z,21.86
2018-03-24T07:30:50.999Z,21.83
2018-03-24T07:31:50.975Z,21.79
2018-03-24T07:32:50.966Z,21.79
2018-03-24T07:33:50.970Z,21.83
2018-03-24T07:34:50.957Z,21.77
2018-03-24T07:35:50.954Z,21.73
2018-03-24T07:36:50.964Z,21.67
2018-03-24T07:37:50.997Z,21.71
2018-03-24T07:38:50.952Z,21.83
2018-03-24T07:39:50.944Z,21.77
2018-03-24T07:40:50.928Z,21.75
2018-03-24T07:41:50.931Z,21.79
2018-03-24T07:42:50.928Z,21.73
2018-03-24T07:43:50.922Z,21.67
2018-03-24T07:44:50.916Z,21.68
2018-03-24T07:45:50.891Z,21.70
2018-03-24T07:46:50.884Z,21.82
2018-03-24T07:47:50.888Z,21.75
2018-03-24T07:48:50.870Z,21.77
2018-03-24T07:49:50.875Z,21.77
2018-03-24T07:50:50.869Z,21.83
2018-03-24T07:51:50.871Z,21.79
2018-03-24T07:52:50.867Z,21.77
2018-03-24T07:53:50.854Z,21.83
2018-03-24T07:54:50.853Z,21.77
2018-03-24T07:55:50.822Z,21.86
2018-03-24T07:56:50.824Z,21.91
2018-03-24T07:57:50.831Z,21.90
2018-03-24T07:58:50.823Z,21.93
2018-03-24T07:59:50.809Z,21.90
2018-03-24T08:00:50.800Z,22.05
2018-03-24T08:01:50.794Z,22.01
2018-03-24T08:02:50.778Z,22.02
2018-03-24T08:03:50.782Z,22.04
2018-03-24T08:04:50.796Z,22.12
2018-03-24T08:05:50.768Z,22.01
2018-03-24T08:06:50.784Z,22.02
2018-03-24T08:07:50.755Z,22.01
2018-03-24T08:08:50.754Z,22.11
2018-03-24T08:09:50.752Z,22.05
2018-03-24T08:10:50.743Z,22.01
2018-03-24T08:11:50.726Z,22.09
2018-03-24T08:12:50.727Z,22.01
2018-03-24T08:13:50.737Z,22.02
2018-03-24T08:14:50.732Z,22.06
2018-03-24T08:15:50.713Z,22.06
2018-03-24T08:16:50.719Z,22.05
2018-03-24T08:17:50.701Z,22.11
2018-03-24T08:18:50.696Z,22.12
2018-03-24T08:19:50.685Z,22.17
2018-03-24T08:20:50.683Z,22.21
2018-03-24T08:21:50.786Z,22.12
2018-03-24T08:22:50.663Z,22.08
2018-03-24T08:23:50.657Z,22.01
2018-03-24T08:24:50.659Z,22.17
2018-03-24T08:25:50.653Z,22.17
2018-03-24T08:26:50.644Z,22.15
2018-03-24T08:27:50.639Z,22.04
2018-03-24T08:28:50.633Z,21.99
2018-03-24T08:29:50.683Z,22.01
2018-03-24T08:30:50.625Z,21.98
2018-03-24T08:31:50.637Z,22.06
2018-03-24T08:32:50.631Z,21.99
2018-03-24T08:33:50.624Z,22.05
2018-03-24T08:34:50.615Z,22.05
2018-03-24T08:35:50.596Z,22.09
2018-03-24T08:36:50.594Z,22.02
2018-03-24T08:37:50.580Z,22.01
2018-03-24T08:38:50.573Z,22.04
2018-03-24T08:39:50.586Z,22.06
2018-03-24T08:40:50.581Z,22.04
2018-03-24T08:41:50.561Z,22.04
2018-03-24T08:42:50.554Z,22.11
2018-03-24T08:43:50.548Z,22.09
2018-03-24T08:44:50.558Z,22.06
2018-03-24T08:45:50.537Z,22.02
2018-03-24T08:46:50.527Z,22.06
2018-03-24T08:47:50.543Z,22.09
2018-03-24T08:48:50.538Z,22.09
2018-03-24T08:49:50.513Z,22.06
2018-03-24T08:50:50.497Z,22.08
2018-03-24T08:51:50.518Z,22.14
2018-03-24T08:52:50.514Z,22.09
2018-03-24T08:53:50.507Z,22.02
2018-03-24T08:54:50.497Z,22.06
2018-03-24T08:55:50.477Z,22.09
2018-03-24T08:56:50.478Z,22.14
2018-03-24T08:57:50.556Z,22.05
2018-03-24T08:58:50.459Z,22.06
2018-03-24T08:59:50.472Z,22.01
2018-03-24T09:00:50.459Z,22.08
2018-03-24T09:01:50.432Z,22.01
2018-03-24T09:02:50.428Z,22.04
2018-03-24T09:03:50.443Z,22.04
2018-03-24T09:04:50.434Z,22.02
2018-03-24T09:05:50.419Z,22.05
2018-03-24T09:06:50.419Z,21.94
2018-03-24T09:07:50.398Z,21.93
2018-03-24T09:08:50.468Z,21.91
2018-03-24T09:09:50.404Z,21.90
2018-03-24T09:10:50.397Z,21.94
2018-03-24T09:11:50.385Z,21.98
2018-03-24T09:12:50.396Z,21.96
2018-03-24T09:13:50.378Z,22.02
2018-03-24T09:14:50.365Z,22.05
2018-03-24T09:15:50.367Z,22.01
2018-03-24T09:16:50.356Z,22.05
2018-03-24T09:17:50.354Z,22.02
2018-03-24T09:18:50.332Z,21.99
2018-03-24T09:19:50.345Z,22.04
2018-03-24T09:20:50.321Z,21.99
2018-03-24T09:21:50.342Z,21.99
2018-03-24T09:22:50.308Z,21.98
2018-03-24T09:23:50.311Z,21.91
2018-03-24T09:24:50.308Z,21.96
2018-03-24T09:25:50.307Z,21.83
2018-03-24T09:26:50.313Z,21.86
2018-03-24T09:27:50.296Z,21.90
2018-03-24T09:28:50.283Z,21.79
2018-03-24T09:29:50.296Z,21.85
2018-03-24T09:30:50.272Z,21.85
2018-03-24T09:31:50.283Z,21.91
2018-03-24T09:32:50.276Z,21.89
2018-03-24T09:33:50.256Z,21.91
2018-03-24T09:34:50.253Z,21.89
2018-03-24T09:35:50.250Z,21.89
2018-03-24T09:36:50.235Z,21.90
2018-03-24T09:37:50.247Z,21.91
2018-03-24T09:38:50.222Z,21.96
2018-03-24T09:39:50.218Z,21.93
2018-03-24T09:40:50.208Z,21.93
2018-03-24T09:41:50.201Z,21.99
2018-03-24T09:42:50.196Z,21.96
2018-03-24T09:43:50.207Z,21.91
2018-03-24T09:44:50.180Z,21.91
2018-03-24T09:45:50.172Z,21.94
2018-03-24T09:46:50.176Z,21.93
2018-03-24T09:47:50.171Z,22.02
2018-03-24T09:48:50.163Z,21.99
2018-03-24T09:49:50.147Z,21.91
2018-03-24T09:50:50.152Z,22.01
2018-03-24T09:51:50.147Z,22.08
2018-03-24T09:52:50.147Z,22.02
2018-03-24T09:53:50.138Z,21.99
2018-03-24T09:54:50.170Z,22.09
2018-03-24T09:55:50.122Z,21.94
2018-03-24T09:56:50.113Z,21.99
2018-03-24T09:57:50.107Z,22.02
2018-03-24T09:58:50.094Z,22.04
2018-03-24T09:59:50.099Z,22.08
2018-03-24T10:00:50.092Z,22.06
2018-03-24T10:01:50.083Z,22.06
2018-03-24T10:02:50.081Z,21.99
2018-03-24T10:03:50.078Z,21.98
2018-03-24T10:04:50.068Z,21.99
2018-03-24T10:05:50.063Z,22.12
2018-03-24T10:06:50.054Z,22.02
2018-03-24T10:07:50.048Z,22.20
2018-03-24T10:08:50.046Z,22.14
2018-03-24T10:09:50.045Z,22.12
2018-03-24T10:10:50.034Z,22.19
2018-03-24T10:11:50.020Z,22.11
2018-03-24T10:12:50.020Z,22.14
2018-03-24T10:13:50.016Z,22.15
2018-03-24T10:14:50.011Z,22.17
2018-03-24T10:15:50.002Z,22.14
2018-03-24T10:16:49.991Z,22.12
2018-03-24T10:17:50.005Z,22.17
2018-03-24T10:18:49.990Z,22.29
2018-03-24T10:19:49.998Z,22.33
2018-03-24T10:20:49.981Z,22.23
2018-03-24T10:21:49.971Z,22.26
2018-03-24T10:22:49.966Z,22.29
2018-03-24T10:23:49.959Z,22.35
2018-03-24T10:24:49.944Z,22.30
2018-03-24T10:25:49.954Z,22.29
2018-03-24T10:26:49.943Z,22.36
2018-03-24T10:27:49.938Z,22.42
2018-03-24T10:28:49.934Z,22.45
2018-03-24T10:29:49.929Z,22.41
2018-03-24T10:30:49.911Z,22.42
2018-03-24T10:31:49.906Z,22.41
2018-03-24T10:32:49.909Z,22.36
2018-03-24T10:33:49.918Z,22.39
2018-03-24T10:34:49.903Z,22.42
2018-03-24T10:35:49.888Z,22.44
2018-03-24T10:36:49.875Z,22.44
2018-03-24T10:37:49.895Z,22.46
2018-03-24T10:38:49.875Z,22.42
2018-03-24T10:39:49.884Z,22.52
2018-03-24T10:40:49.863Z,22.52
2018-03-24T10:41:49.856Z,22.57
2018-03-24T10:42:49.841Z,22.60
2018-03-24T10:43:49.852Z,22.63
2018-03-24T10:44:49.857Z,22.60
2018-03-24T10:45:49.834Z,22.64
2018-03-24T10:46:49.826Z,22.72
2018-03-24T10:47:49.815Z,22.67
2018-03-24T10:48:49.835Z,22.69
2018-03-24T10:49:49.812Z,22.70
2018-03-24T10:50:49.799Z,22.67
2018-03-24T10:51:49.802Z,22.66
2018-03-24T10:52:49.813Z,22.66
2018-03-24T10:53:49.791Z,22.66
2018-03-24T10:54:49.803Z,22.61
2018-03-24T10:55:49.780Z,22.69
2018-03-24T10:56:49.786Z,22.78
2018-03-24T10:57:49.786Z,22.66
2018-03-24T10:58:49.754Z,22.75
2018-03-24T10:59:49.747Z,22.66
2018-03-24T11:00:49.768Z,22.84
2018-03-24T11:01:49.745Z,22.66
2018-03-24T11:02:49.752Z,22.89
2018-03-24T11:03:49.734Z,22.78
2018-03-24T11:04:49.748Z,22.84
2018-03-24T11:05:49.739Z,22.85
2018-03-24T11:06:49.719Z,22.89
2018-03-24T11:07:49.713Z,23.00
2018-03-24T11:08:49.714Z,22.86
2018-03-24T11:09:49.691Z,22.85
2018-03-24T11:10:49.713Z,22.89
2018-03-24T11:11:49.682Z,22.86
2018-03-24T11:12:49.700Z,22.96
2018-03-24T11:13:49.680Z,22.97
2018-03-24T11:14:49.673Z,22.97
2018-03-24T11:15:49.680Z,23.03
2018-03-24T11:16:49.659Z,23.04
2018-03-24T11:17:49.675Z,23.12
2018-03-24T11:18:49.648Z,23.12
2018-03-24T11:19:49.646Z,23.19
2018-03-24T11:20:49.639Z,23.23
2018-03-24T11:21:49.634Z,23.21
2018-03-24T11:22:49.622Z,23.25
2018-03-24T11:23:49.645Z,23.32
2018-03-24T11:24:49.610Z,23.34
2018-03-24T11:25:49.614Z,23.29
2018-03-24T11:26:49.600Z,23.31
2018-03-24T11:27:49.601Z,23.42
2018-03-24T11:28:49.588Z,23.37
2018-03-24T11:29:49.594Z,23.35
2018-03-24T11:30:49.584Z,23.41
2018-03-24T11:31:49.584Z,23.38
2018-03-24T11:32:49.575Z,23.41
2018-03-24T11:33:49.562Z,23.49
2018-03-24T11:34:49.564Z,23.53
2018-03-24T11:35:49.563Z,23.49
2018-03-24T11:36:49.558Z,23.50
2018-03-24T11:37:49.558Z,23.59
2018-03-24T11:38:49.572Z,23.56
2018-03-24T11:39:49.553Z,23.56
2018-03-24T11:40:49.527Z,23.60
2018-03-24T11:41:49.542Z,23.72
2018-03-24T11:42:49.523Z,23.77
2018-03-24T11:43:49.522Z,23.72
2018-03-24T11:44:49.517Z,23.75
2018-03-24T11:45:49.510Z,23.69
2018-03-24T11:46:49.518Z,23.71
2018-03-24T11:47:49.491Z,23.78
2018-03-24T11:48:49.496Z,23.82
2018-03-24T11:49:49.491Z,23.81
2018-03-24T11:50:49.485Z,23.90
2018-03-24T11:51:49.496Z,23.86
2018-03-24T11:52:49.524Z,23.92
2018-03-24T11:53:49.485Z,23.93
2018-03-24T11:54:49.461Z,24.06
2018-03-24T11:55:49.471Z,24.06
2018-03-24T11:56:49.461Z,24.18
2018-03-24T11:57:49.446Z,24.27
2018-03-24T11:58:49.460Z,24.30
2018-03-24T11:59:49.452Z,24.29
2018-03-24T12:00:49.447Z,24.36
2018-03-24T12:01:49.429Z,24.33
2018-03-24T12:02:49.436Z,24.29
2018-03-24T12:03:49.434Z,24.33
2018-03-24T12:04:49.430Z,24.33
2018-03-24T12:05:49.399Z,24.42
2018-03-24T12:06:49.417Z,24.52
2018-03-24T12:07:49.401Z,24.61
2018-03-24T12:08:49.392Z,24.66
2018-03-24T12:09:49.380Z,24.77
2018-03-24T12:10:49.397Z,24.75
2018-03-24T12:11:49.394Z,24.82
2018-03-24T12:12:49.372Z,24.83
2018-03-24T12:13:49.367Z,25.12
2018-03-24T12:14:49.382Z,25.35
2018-03-24T12:15:49.367Z,25.42
2018-03-24T12:16:49.354Z,25.41
2018-03-24T12:17:49.343Z,25.75
2018-03-24T12:18:49.354Z,25.67
2018-03-24T12:19:49.350Z,25.79
2018-03-24T12:20:49.330Z,25.91
2018-03-24T12:21:49.324Z,26.01
2018-03-24T12:22:49.345Z,26.71
2018-03-24T12:23:49.333Z,26.61
2018-03-24T12:24:49.334Z,27.08
2018-03-24T12:25:49.318Z,26.94
2018-03-24T12:26:49.314Z,26.91
2018-03-24T12:27:49.326Z,27.21
2018-03-24T12:28:49.308Z,27.25
2018-03-24T12:29:49.299Z,27.53
2018-03-24T12:30:49.296Z,27.49
2018-03-24T12:31:49.308Z,27.43
2018-03-24T12:32:49.305Z,27.43
2018-03-24T12:33:49.316Z,27.39
2018-03-24T12:34:49.322Z,27.63
2018-03-24T12:35:49.288Z,27.50
2018-03-24T12:36:49.297Z,27.58
2018-03-24T12:37:49.292Z,27.59
2018-03-24T12:38:49.293Z,28.30
2018-03-24T12:39:49.273Z,27.86
2018-03-24T12:40:49.283Z,27.88
2018-03-24T12:41:49.268Z,28.25
2018-03-24T12:42:49.262Z,27.88
2018-03-24T12:43:49.264Z,28.01
2018-03-24T12:44:49.266Z,28.08
2018-03-24T12:45:49.273Z,28.18
2018-03-24T12:46:49.269Z,28.27
2018-03-24T12:47:49.261Z,28.40
2018-03-24T12:48:49.249Z,28.55
2018-03-24T12:49:49.284Z,28.46
2018-03-24T12:50:49.249Z,28.46
2018-03-24T12:51:49.252Z,28.55
2018-03-24T12:52:49.240Z,28.61